Time,TemperatureF,DewpointF,PressureIn,WindDirection,WindDirectionDegrees,WindSpeedMPH,WindSpeedGustMPH,Humidity,HourlyPrecipIn,Conditions,Clouds,dailyrainin,SolarRadiationWatts/m^2,SoftwareType,DateUTC
2013-01-20 00:32:00,5.0,0.0,-100.00,NW,318,1.0,2.0,81,0.00,,,0.05,1.000000,,2013-01-20 07:32:00,
2013-01-20 01:42:00,4.0,-1.0,-100.00,NW,317,0.0,2.0,79,0.02,,,0.07,1.000000,,2013-01-20 08:42:00,
2013-01-20 01:52:00,4.0,-1.0,-100.00,NW,317,0.0,2.0,79,0.02,,,0.07,1.000000,,2013-01-20 08:52:00,
2013-01-20 02:33:00,5.0,0.0,-100.00,NW,324,1.0,3.0,81,0.01,,,0.08,1.000000,,2013-01-20 09:33:00,
2013-01-20 03:02:00,5.0,0.0,-100.00,NW,324,1.0,3.0,81,0.01,,,0.08,1.000000,,2013-01-20 10:02:00,
2013-01-20 03:11:00,5.0,0.0,-100.00,NW,324,1.0,3.0,81,0.01,,,0.08,1.000000,,2013-01-20 10:11:00,
2013-01-20 03:33:00,5.0,0.0,-100.00,NW,309,1.0,3.0,78,0.00,,,0.08,1.000000,,2013-01-20 10:33:00,
2013-01-20 03:42:00,5.0,0.0,-100.00,NW,309,1.0,3.0,78,0.00,,,0.08,1.000000,,2013-01-20 10:42:00,
2013-01-20 03:52:00,5.0,0.0,-100.00,NW,309,1.0,3.0,78,0.00,,,0.08,1.000000,,2013-01-20 10:52:00,
2013-01-20 04:02:00,5.0,0.0,-100.00,NW,309,1.0,3.0,78,0.00,,,0.08,1.000000,,2013-01-20 11:02:00,
2013-01-20 04:12:00,5.0,0.0,-100.00,NW,309,1.0,3.0,78,0.00,,,0.08,1.000000,,2013-01-20 11:12:00,
2013-01-20 04:33:00,3.0,-2.0,-100.00,NW,325,2.0,3.0,78,0.00,,,0.08,1.000000,,2013-01-20 11:33:00,
2013-01-20 05:02:00,3.0,-2.0,-100.00,NW,325,2.0,3.0,78,0.00,,,0.08,1.000000,,2013-01-20 12:02:00,
2013-01-20 05:33:00,3.0,-3.0,-100.00,NW,325,0.0,3.0,76,0.00,,,0.08,1.000000,,2013-01-20 12:33:00,
2013-01-20 06:02:00,3.0,-3.0,-100.00,NW,325,0.0,3.0,76,0.00,,,0.08,1.000000,,2013-01-20 13:02:00,
2013-01-20 06:12:00,3.0,-3.0,-100.00,NW,325,0.0,3.0,76,0.00,,,0.08,1.000000,,2013-01-20 13:12:00,
2013-01-20 06:33:00,0.0,-6.0,-100.00,NW,313,1.0,3.0,76,0.00,,,0.07,1.000000,,2013-01-20 13:33:00,
2013-01-20 06:43:00,0.0,-99.9,-100.00,NW,313,1.0,3.0,76,0.00,,,0.07,1.000000,,2013-01-20 13:43:00,
2013-01-20 06:53:00,0.0,-99.9,-100.00,NW,313,1.0,3.0,76,0.00,,,0.07,1.000000,,2013-01-20 13:53:00,
2013-01-20 07:03:00,0.0,-99.9,-100.00,NW,313,1.0,3.0,76,0.00,,,0.07,1.000000,,2013-01-20 14:03:00,
2013-01-20 07:12:00,0.0,-99.9,-100.00,NW,313,1.0,3.0,76,0.00,,,0.07,1.000000,,2013-01-20 14:12:00,
2013-01-20 07:43:00,2.0,-3.0,-100.00,NW,312,2.0,4.0,78,0.00,,,0.07,1.000000,,2013-01-20 14:43:00,
2013-01-20 07:53:00,2.0,-3.0,-100.00,NW,312,2.0,4.0,78,0.00,,,0.07,1.000000,,2013-01-20 14:53:00,
2013-01-20 08:03:00,2.0,-3.0,-100.00,NW,312,2.0,4.0,78,0.00,,,0.07,1.000000,,2013-01-20 15:03:00,
2013-01-20 08:12:00,2.0,-3.0,-100.00,NW,312,2.0,4.0,78,0.00,,,0.07,1.000000,,2013-01-20 15:12:00,
2013-01-20 08:43:00,6.0,1.0,-100.00,NW,307,3.0,5.0,78,0.00,,,0.07,50.000000,,2013-01-20 15:43:00,
2013-01-20 08:53:00,6.0,1.0,-100.00,NW,307,3.0,5.0,78,0.00,,,0.07,50.000000,,2013-01-20 15:53:00,
2013-01-20 09:02:00,6.0,1.0,-100.00,NW,307,3.0,5.0,78,0.00,,,0.07,50.000000,,2013-01-20 16:02:00,
2013-01-20 09:12:00,6.0,1.0,-100.00,NW,307,3.0,5.0,78,0.00,,,0.07,50.000000,,2013-01-20 16:12:00,
2013-01-20 09:33:00,18.0,11.0,-100.00,NW,324,2.0,7.0,75,0.00,,,0.07,292.000000,,2013-01-20 16:33:00,
2013-01-20 10:33:00,29.0,14.0,-100.00,NE,43,2.0,6.0,54,0.00,,,0.07,487.000000,,2013-01-20 17:33:00,
2013-01-20 11:43:00,35.0,15.0,-100.00,ESE,110,2.0,6.0,43,-99.99,,,0.07,675.000000,,2013-01-20 18:43:00,
2013-01-20 11:53:00,35.0,15.0,-100.00,ESE,110,2.0,6.0,43,-99.99,,,0.07,675.000000,,2013-01-20 18:53:00,
2013-01-20 12:33:00,39.0,16.0,-100.00,South,170,2.0,6.0,39,-99.99,,,0.07,766.000000,,2013-01-20 19:33:00,
2013-01-20 13:42:00,41.0,17.0,-100.00,ESE,120,5.0,8.0,37,-99.99,,,0.07,782.000000,,2013-01-20 20:42:00,
2013-01-20 13:53:00,41.0,17.0,-100.00,ESE,120,5.0,8.0,37,-99.99,,,0.07,782.000000,,2013-01-20 20:53:00,
2013-01-20 14:33:00,43.0,18.0,-100.00,SSW,206,4.0,9.0,36,0.00,,,0.07,718.000000,,2013-01-20 21:33:00,
2013-01-20 14:43:00,43.0,18.0,-100.00,SSW,206,4.0,9.0,36,0.00,,,0.07,718.000000,,2013-01-20 21:43:00,
2013-01-20 14:53:00,43.0,18.0,-100.00,SSW,206,4.0,9.0,36,0.00,,,0.07,718.000000,,2013-01-20 21:53:00,
2013-01-20 15:33:00,42.0,17.0,-100.00,South,184,5.0,8.0,36,0.01,,,0.08,580.000000,,2013-01-20 22:33:00,
2013-01-20 15:43:00,42.0,17.0,-100.00,South,184,5.0,8.0,36,0.01,,,0.08,580.000000,,2013-01-20 22:43:00,
2013-01-20 15:53:00,42.0,17.0,-100.00,South,184,5.0,8.0,36,0.01,,,0.08,580.000000,,2013-01-20 22:53:00,
2013-01-20 16:03:00,42.0,17.0,-100.00,South,184,5.0,8.0,36,0.01,,,0.08,580.000000,,2013-01-20 23:03:00,
2013-01-20 16:12:00,42.0,17.0,-100.00,South,184,5.0,8.0,36,0.01,,,0.08,580.000000,,2013-01-20 23:12:00,
2013-01-20 16:33:00,41.0,17.0,-100.00,South,176,4.0,9.0,38,0.00,,,0.08,380.000000,,2013-01-20 23:33:00,
2013-01-20 16:43:00,41.0,17.0,-100.00,South,176,4.0,9.0,38,0.00,,,0.08,380.000000,,2013-01-20 23:43:00,
2013-01-20 16:53:00,41.0,17.0,-100.00,South,176,4.0,9.0,38,0.00,,,0.08,380.000000,,2013-01-20 23:53:00,
2013-01-20 17:02:00,41.0,17.0,-100.00,South,176,4.0,9.0,38,0.00,,,0.08,380.000000,,2013-01-21 00:02:00,
2013-01-20 17:12:00,41.0,17.0,-100.00,South,176,4.0,9.0,38,0.00,,,0.08,380.000000,,2013-01-21 00:12:00,
2013-01-20 17:33:00,35.0,15.0,-100.00,WSW,240,0.0,6.0,44,-99.99,,,0.07,141.000000,,2013-01-21 00:33:00,
2013-01-20 17:43:00,35.0,15.0,-100.00,WSW,240,0.0,6.0,44,-99.99,,,0.07,141.000000,,2013-01-21 00:43:00,
2013-01-20 17:53:00,35.0,15.0,-100.00,WSW,240,0.0,6.0,44,-99.99,,,0.07,141.000000,,2013-01-21 00:53:00,
2013-01-20 18:02:00,35.0,15.0,-100.00,WSW,240,0.0,6.0,44,-99.99,,,0.07,141.000000,,2013-01-21 01:02:00,
2013-01-20 18:12:00,35.0,15.0,-100.00,WSW,240,0.0,6.0,44,-99.99,,,0.07,141.000000,,2013-01-21 01:12:00,
2013-01-20 18:33:00,21.0,11.0,-100.00,NW,321,1.0,3.0,66,0.00,,,0.07,3.000000,,2013-01-21 01:33:00,
2013-01-20 19:12:00,21.0,11.0,-100.00,NW,321,1.0,3.0,66,0.00,,,0.07,3.000000,,2013-01-21 02:12:00,
2013-01-20 19:33:00,16.0,10.0,-100.00,NNW,334,0.0,3.0,77,0.02,,,0.09,1.000000,,2013-01-21 02:33:00,
2013-01-20 20:02:00,16.0,10.0,-100.00,NNW,334,0.0,3.0,77,0.02,,,0.09,1.000000,,2013-01-21 03:02:00,
2013-01-20 20:12:00,16.0,10.0,-100.00,NNW,334,0.0,3.0,77,0.02,,,0.09,1.000000,,2013-01-21 03:12:00,
2013-01-20 20:33:00,12.0,7.0,-100.00,NNW,336,1.0,3.0,81,0.00,,,0.08,1.000000,,2013-01-21 03:33:00,
2013-01-20 20:43:00,12.0,7.0,-100.00,NNW,336,1.0,3.0,81,0.00,,,0.08,1.000000,,2013-01-21 03:43:00,
2013-01-20 20:53:00,12.0,7.0,-100.00,NNW,336,1.0,3.0,81,0.00,,,0.08,1.000000,,2013-01-21 03:53:00,
2013-01-20 21:02:00,12.0,7.0,-100.00,NNW,336,1.0,3.0,81,0.00,,,0.08,1.000000,,2013-01-21 04:02:00,
2013-01-20 21:12:00,12.0,7.0,-100.00,NNW,336,1.0,3.0,81,0.00,,,0.08,1.000000,,2013-01-21 04:12:00,
2013-01-20 21:33:00,11.0,7.0,-100.00,NNW,338,1.0,3.0,83,0.00,,,0.08,1.000000,,2013-01-21 04:33:00,
2013-01-20 21:43:00,11.0,7.0,-100.00,NNW,338,1.0,3.0,83,0.00,,,0.08,1.000000,,2013-01-21 04:43:00,
2013-01-20 21:53:00,11.0,7.0,-100.00,NNW,338,1.0,3.0,83,0.00,,,0.08,1.000000,,2013-01-21 04:53:00,
2013-01-20 22:03:00,11.0,7.0,-100.00,NNW,338,1.0,3.0,83,0.00,,,0.08,1.000000,,2013-01-21 05:03:00,
2013-01-20 22:12:00,11.0,7.0,-100.00,NNW,338,1.0,3.0,83,0.00,,,0.08,1.000000,,2013-01-21 05:12:00,
2013-01-20 22:42:00,9.0,5.0,-100.00,NNW,335,1.0,3.0,83,0.00,,,0.06,1.000000,,2013-01-21 05:42:00,
2013-01-20 22:53:00,9.0,5.0,-100.00,NNW,335,1.0,3.0,83,0.00,,,0.06,1.000000,,2013-01-21 05:53:00,
2013-01-20 23:33:00,7.0,3.0,-100.00,NW,309,1.0,3.0,82,0.00,,,0.06,1.000000,,2013-01-21 06:33:00,